메인 페이지
METAR-TAF:

METAR-TAF

공항 :

나이로비, 케냐

조모 케냐타 국제공항

위도: 01-19S, 경도: 036-55E, 고도: 1624m

현재 날씨관측

예보는 20분 전, 09:30시(UTC)에 발표되었습니다.
여러 방향의 바람 5kt
온도 26°C
습도 34%
기압 1018 hPa
시정 10km 이상
고도 2800ft 상공 구름 조금

METAR: HKJK 180930Z VRB05KT 9999 FEW028 26/09 Q1018

시각: 12:50 (09:50 UTC)

예보

예보는 4 시간 50분 전, 05:00시(UTC)에 발표되었습니다.
예보 대상 시간: 18일 06시부터 19일 12시까지 (UTC)
북동10kt
시정 10km 이상
고도 2600ft 상공 구름 보통
전환 중
18일 19시부터 18일 23시까지 (UTC)
5kt
시정 10km 이상
1500m 미만 상공 구름 및 적란운 없음
전환 중
19일 08시부터 19일 11시까지 (UTC)
동북동10kt
시정 10km 이상
고도 2500ft 상공 구름 보통

TAF: HKJK 180500Z 1806/1912 05010KT 9999 SCT026 BECMG 1819/1823 36005KT CAVOK BECMG 1908/1911 06010KT 9999 SCT025

4,000개 이상의 공항 관측 자료 및 예보 (METAR 및 TAF 보고).

지도상에서 검색 가능한 기상관측소가 노란 점과 빨간 점으로 표시되어 있습니다.

기상관측소 명을 보려면 표시 위로 마우스를 이동하세요.

날씨 관측과 예보를 보려면 클릭하세요.

지도 변경 : 확대하려면 엑스 표시가 있는 녹색 버튼, 축소하려면 빼기 표시가 있는 녹색 버튼, 다음 페이지의 지도를 보려면 녹색 화살표를 클릭하세요.


METAR-TAF: